Time;durP1;ratioP1;P1;durP2;ratioP2;P2;SDS_P1;SDS_P2;PMS_P1;PMS_P2;Temp;Humidity;BMP_temperature;BMP_pressure;BME280_temperature;BME280_humidity;BME280_pressure;Samples;Min_cycle;Max_cycle;Signal;HPM_P1;HPM_P2
2023/05/30 00:01:39;;;;;;;4.30;1.80;;;12.50;94.30;;;;;;5014673;28;20215;-67
2023/05/30 00:04:05;;;;;;;3.40;1.90;;;12.40;94.40;;;;;;5014616;28;20239;-68
2023/05/30 00:06:31;;;;;;;3.50;2.17;;;12.40;94.60;;;;;;5013141;28;20922;-68
2023/05/30 00:08:57;;;;;;;3.83;1.93;;;12.40;94.80;;;;;;5012536;28;20533;-67
2023/05/30 00:11:24;;;;;;;3.17;1.60;;;12.40;94.90;;;;;;5012922;28;20180;-68
2023/05/30 00:13:50;;;;;;;4.10;2.17;;;12.30;94.90;;;;;;5013335;28;20184;-68
2023/05/30 00:16:19;;;;;;;3.93;1.90;;;12.20;95.10;;;;;;5013024;28;20773;-68
2023/05/30 00:18:45;;;;;;;4.67;2.00;;;12.10;95.20;;;;;;5038212;23;20489;-70
2023/05/30 00:21:11;;;;;;;4.37;2.27;;;12.10;95.50;;;;;;5024958;28;20932;-70
2023/05/30 00:23:38;;;;;;;3.10;1.90;;;12.10;95.50;;;;;;5012838;28;20407;-69
2023/05/30 00:26:08;;;;;;;6.03;2.00;;;12.00;95.80;;;;;;5028503;28;20175;-69
2023/05/30 00:28:35;;;;;;;4.20;2.10;;;12.00;95.80;;;;;;5032378;28;20518;-69
2023/05/30 00:31:01;;;;;;;4.47;1.80;;;12.00;96.10;;;;;;5032305;28;20915;-69
2023/05/30 00:33:27;;;;;;;1.90;1.50;;;11.90;96.10;;;;;;5032108;28;20418;-69
2023/05/30 00:35:52;;;;;;;2.77;1.77;;;11.80;96.30;;;;;;5032556;28;20174;-70
2023/05/30 00:38:18;;;;;;;2.97;2.20;;;11.80;96.50;;;;;;5031333;28;20642;-69
2023/05/30 00:40:44;;;;;;;3.37;1.93;;;11.70;96.70;;;;;;5031020;28;20203;-69
2023/05/30 00:43:10;;;;;;;2.70;1.50;;;11.70;97.00;;;;;;5032670;28;20172;-69
2023/05/30 00:45:36;;;;;;;3.17;1.80;;;11.70;97.00;;;;;;5032795;28;20434;-69
2023/05/30 00:48:02;;;;;;;3.00;1.90;;;11.60;97.10;;;;;;5032565;28;20199;-69
2023/05/30 00:50:30;;;;;;;3.50;2.07;;;11.60;97.40;;;;;;5032199;28;20520;-69
2023/05/30 00:52:57;;;;;;;3.70;2.27;;;11.60;97.70;;;;;;5032307;28;20402;-69
2023/05/30 00:55:24;;;;;;;4.20;2.20;;;11.70;97.80;;;;;;5030218;28;20797;-69
2023/05/30 00:57:49;;;;;;;2.57;1.80;;;11.80;97.90;;;;;;5031725;28;20441;-69
2023/05/30 01:00:16;;;;;;;2.20;1.70;;;11.70;97.90;;;;;;5031723;28;20406;-69
2023/05/30 01:02:44;;;;;;;5.63;1.80;;;11.60;98.20;;;;;;5031725;28;20450;-69
2023/05/30 01:05:12;;;;;;;10.13;2.90;;;11.60;98.10;;;;;;5031452;28;20438;-69
2023/05/30 01:07:41;;;;;;;4.53;1.80;;;11.50;98.30;;;;;;5031387;28;20498;-69
2023/05/30 01:10:07;;;;;;;3.00;2.00;;;11.40;98.60;;;;;;5031524;28;20772;-69
2023/05/30 01:12:47;;;;;;;3.97;2.00;;;11.40;98.60;;;;;;5029820;28;20442;-68
2023/05/30 01:15:30;;;;;;;3.60;1.47;;;11.30;98.80;;;;;;5030121;28;20413;-68
2023/05/30 01:18:16;;;;;;;2.67;1.80;;;11.30;99.20;;;;;;5031024;28;20453;-69
2023/05/30 01:20:46;;;;;;;5.50;1.93;;;11.50;99.50;;;;;;5031245;28;20453;-69
2023/05/30 01:23:30;;;;;;;4.50;2.00;;;11.30;99.40;;;;;;5031278;28;20402;-68
2023/05/30 01:26:33;;;;;;;3.07;1.90;;;11.30;99.90;;;;;;5029693;28;20406;-69
2023/05/30 01:29:02;;;;;;;3.80;2.03;;;11.40;99.70;;;;;;5029448;28;20484;-69
2023/05/30 01:31:29;;;;;;;4.57;1.80;;;11.40;99.90;;;;;;5031368;28;20778;-69
2023/05/30 01:33:56;;;;;;;3.87;1.70;;;11.30;99.90;;;;;;5031135;28;20407;-68
2023/05/30 01:36:21;;;;;;;4.70;2.20;;;11.20;99.90;;;;;;5030753;28;20407;-68
2023/05/30 01:38:47;;;;;;;3.23;2.30;;;11.20;99.90;;;;;;5030910;28;20422;-68
2023/05/30 01:41:25;;;;;;;5.00;1.60;;;11.20;99.90;;;;;;5030873;28;20202;-68
2023/05/30 01:44:02;;;;;;;5.80;1.83;;;11.30;99.90;;;;;;5018364;28;20322;-68
2023/05/30 01:46:39;;;;;;;4.70;1.77;;;11.30;99.90;;;;;;5014030;28;20487;-70
2023/05/30 01:49:12;;;;;;;3.10;2.13;;;11.30;99.90;;;;;;5010972;28;21074;-69
2023/05/30 01:51:59;;;;;;;5.03;2.30;;;11.30;99.90;;;;;;5011131;28;20412;-69
2023/05/30 01:54:28;;;;;;;3.53;1.97;;;11.40;99.90;;;;;;5011019;28;20808;-69
2023/05/30 01:56:58;;;;;;;2.43;1.90;;;11.30;99.90;;;;;;5010859;28;20407;-69
2023/05/30 01:59:25;;;;;;;2.27;2.07;;;11.30;99.90;;;;;;5010811;28;20431;-68
2023/05/30 02:01:53;;;;;;;3.63;2.00;;;11.20;99.90;;;;;;5010643;28;20458;-68
2023/05/30 02:04:19;;;;;;;2.77;1.80;;;11.20;99.90;;;;;;5025444;28;20430;-68
2023/05/30 02:06:45;;;;;;;5.47;2.17;;;11.20;99.90;;;;;;5030532;28;20413;-69
2023/05/30 02:09:10;;;;;;;2.20;1.53;;;11.20;99.90;;;;;;5030298;28;20183;-69
2023/05/30 02:11:37;;;;;;;3.70;1.90;;;11.10;99.90;;;;;;5030368;28;20183;-69
2023/05/30 02:14:05;;;;;;;5.80;2.17;;;11.00;99.90;;;;;;5030786;28;20249;-70
2023/05/30 02:16:30;;;;;;;7.10;2.03;;;11.10;99.90;;;;;;5030453;28;20863;-69
2023/05/30 02:18:57;;;;;;;3.30;1.77;;;11.00;99.90;;;;;;5030308;28;20524;-69
2023/05/30 02:21:22;;;;;;;3.20;1.80;;;11.00;99.90;;;;;;5028604;28;20242;-68
2023/05/30 02:23:48;;;;;;;3.70;1.97;;;10.90;99.90;;;;;;5030409;28;20406;-69
2023/05/30 02:26:13;;;;;;;3.30;2.50;;;10.90;99.90;;;;;;5030142;28;20582;-68
2023/05/30 02:28:39;;;;;;;8.97;2.27;;;10.90;99.90;;;;;;5030261;28;20183;-69
2023/05/30 02:31:05;;;;;;;5.00;2.20;;;10.90;99.90;;;;;;5030190;28;20225;-69
2023/05/30 02:33:31;;;;;;;7.40;3.33;;;10.80;99.90;;;;;;5030064;28;20221;-69
2023/05/30 02:35:56;;;;;;;3.00;2.03;;;11.00;99.90;;;;;;5028444;28;20214;-69
2023/05/30 02:38:22;;;;;;;3.70;2.13;;;10.90;99.90;;;;;;5030000;28;20447;-69
2023/05/30 02:40:48;;;;;;;4.30;2.60;;;10.80;99.90;;;;;;5029729;28;20190;-69
2023/05/30 02:43:13;;;;;;;2.60;1.50;;;10.80;99.90;;;;;;5030111;28;20174;-69
2023/05/30 02:45:39;;;;;;;4.13;2.17;;;10.60;99.90;;;;;;5030203;28;20508;-69
2023/05/30 02:48:05;;;;;;;2.93;1.83;;;10.60;99.90;;;;;;5029975;28;20199;-69
2023/05/30 02:50:31;;;;;;;3.97;2.50;;;10.60;99.90;;;;;;5030538;28;20263;-69
2023/05/30 02:52:57;;;;;;;2.83;1.97;;;10.60;99.90;;;;;;5028504;28;20447;-68
2023/05/30 02:55:22;;;;;;;2.80;2.40;;;10.60;99.90;;;;;;5029650;28;20614;-68
2023/05/30 02:57:48;;;;;;;4.70;1.97;;;10.60;99.90;;;;;;5029789;28;20192;-69
2023/05/30 03:00:14;;;;;;;4.87;2.43;;;10.70;99.90;;;;;;5029899;28;20165;-67
2023/05/30 03:02:40;;;;;;;5.50;2.70;;;10.70;99.90;;;;;;5032976;28;20203;-68
2023/05/30 03:05:07;;;;;;;3.60;2.57;;;10.70;99.90;;;;;;5033525;28;20428;-69
2023/05/30 03:07:32;;;;;;;2.80;2.27;;;10.70;99.90;;;;;;5033660;28;20185;-69
2023/05/30 03:09:58;;;;;;;4.50;2.43;;;10.70;99.90;;;;;;5033626;28;20398;-69
2023/05/30 03:12:24;;;;;;;7.33;2.50;;;10.70;99.90;;;;;;5032039;28;20189;-69
2023/05/30 03:14:49;;;;;;;5.07;2.63;;;10.70;99.90;;;;;;5033761;28;20785;-69
2023/05/30 03:17:15;;;;;;;9.40;2.80;;;10.60;99.90;;;;;;5033649;28;20248;-68
2023/05/30 03:19:41;;;;;;;3.80;2.30;;;10.60;99.90;;;;;;5033361;28;20709;-69
2023/05/30 03:22:07;;;;;;;4.23;2.00;;;10.60;99.90;;;;;;5033620;28;20334;-70
2023/05/30 03:24:33;;;;;;;2.93;2.10;;;10.60;99.90;;;;;;5033038;28;20448;-69
2023/05/30 03:26:59;;;;;;;4.23;2.97;;;10.60;99.90;;;;;;5031932;28;20531;-68
2023/05/30 03:29:25;;;;;;;4.70;2.30;;;10.60;99.90;;;;;;5033331;28;20435;-69
2023/05/30 03:31:51;;;;;;;3.43;2.70;;;10.70;99.90;;;;;;5033110;28;20901;-68
2023/05/30 03:34:17;;;;;;;9.60;2.40;;;10.70;99.90;;;;;;5033181;28;20422;-69
2023/05/30 03:36:42;;;;;;;3.40;2.53;;;10.70;99.90;;;;;;5033226;28;20181;-68
2023/05/30 03:39:08;;;;;;;3.90;2.60;;;10.70;99.90;;;;;;5032929;28;20524;-70
2023/05/30 03:41:33;;;;;;;4.80;2.30;;;10.70;99.90;;;;;;5033158;28;20285;-68
2023/05/30 03:43:59;;;;;;;2.93;2.00;;;10.70;99.90;;;;;;5031388;28;20326;-69
2023/05/30 03:46:25;;;;;;;4.03;2.37;;;10.70;99.90;;;;;;5033319;28;20168;-68
2023/05/30 03:48:50;;;;;;;3.43;2.10;;;10.80;99.90;;;;;;5032797;28;20191;-69
2023/05/30 03:51:16;;;;;;;5.10;2.30;;;10.90;99.90;;;;;;5032874;28;20250;-68
2023/05/30 03:53:42;;;;;;;5.13;2.33;;;10.90;99.90;;;;;;5032708;28;20226;-69
2023/05/30 03:56:08;;;;;;;3.80;2.23;;;10.90;99.90;;;;;;5032758;28;20186;-69
2023/05/30 03:58:33;;;;;;;5.67;2.40;;;11.00;99.90;;;;;;5032679;28;20421;-69
2023/05/30 04:01:02;;;;;;;3.23;2.00;;;11.00;99.90;;;;;;5031310;28;20265;-69
2023/05/30 04:03:28;;;;;;;2.87;2.33;;;11.10;99.90;;;;;;5032870;28;20239;-68
2023/05/30 04:05:55;;;;;;;6.00;2.63;;;11.10;99.90;;;;;;5032581;28;20394;-68
2023/05/30 04:08:22;;;;;;;3.77;2.40;;;11.20;99.90;;;;;;5032597;28;20984;-69
2023/05/30 04:10:48;;;;;;;6.30;2.53;;;11.30;99.90;;;;;;5032769;28;20414;-68
2023/05/30 04:13:14;;;;;;;6.00;2.57;;;11.40;99.90;;;;;;5031487;28;20445;-69
2023/05/30 04:15:39;;;;;;;4.20;2.47;;;11.40;99.90;;;;;;5032583;28;20390;-68
2023/05/30 04:18:05;;;;;;;2.77;2.03;;;11.40;99.90;;;;;;5032314;28;20265;-71
2023/05/30 04:20:30;;;;;;;7.73;2.50;;;11.60;99.90;;;;;;5030840;28;20180;-69
2023/05/30 04:22:56;;;;;;;3.37;2.50;;;12.40;99.90;;;;;;5032278;28;20164;-69
2023/05/30 04:25:22;;;;;;;4.33;1.83;;;13.30;99.90;;;;;;5026820;28;20267;-69
2023/05/30 04:27:48;;;;;;;7.10;1.87;;;13.80;99.90;;;;;;5012520;28;20188;-69
2023/05/30 04:30:14;;;;;;;4.10;1.93;;;14.20;99.90;;;;;;5012591;28;20247;-68
2023/05/30 04:32:39;;;;;;;4.93;1.93;;;14.40;99.90;;;;;;5012306;28;20404;-70
2023/05/30 04:35:07;;;;;;;5.83;2.20;;;14.90;99.90;;;;;;5012396;28;20182;-69
2023/05/30 04:37:39;;;;;;;2.10;1.83;;;15.50;99.90;;;;;;5012246;28;20258;-69
2023/05/30 04:40:08;;;;;;;2.63;2.07;;;15.90;99.90;;;;;;5012328;28;20446;-69
2023/05/30 04:42:34;;;;;;;5.27;2.60;;;15.70;99.90;;;;;;5012126;28;20527;-70
2023/05/30 04:45:04;;;;;;;3.07;2.37;;;15.70;99.90;;;;;;5025607;28;20434;-70
2023/05/30 04:47:30;;;;;;;4.50;2.20;;;15.30;99.90;;;;;;5012249;28;20213;-69
2023/05/30 04:50:00;;;;;;;5.67;1.90;;;14.70;99.90;;;;;;5011819;28;20898;-68
2023/05/30 04:52:26;;;;;;;3.30;1.60;;;14.80;99.90;;;;;;5012364;28;20176;-68
2023/05/30 04:54:52;;;;;;;4.13;2.03;;;15.10;99.90;;;;;;5012096;28;20421;-69
2023/05/30 04:57:18;;;;;;;4.13;2.30;;;15.10;99.90;;;;;;5012376;28;20412;-69
2023/05/30 04:59:44;;;;;;;3.77;1.90;;;15.90;99.90;;;;;;5012115;28;20753;-68
2023/05/30 05:02:10;;;;;;;4.17;1.50;;;16.70;99.90;;;;;;5033319;28;20448;-69
2023/05/30 05:04:36;;;;;;;2.53;1.80;;;16.40;99.90;;;;;;5034680;28;20178;-69
2023/05/30 05:07:01;;;;;;;5.93;2.07;;;16.00;99.90;;;;;;5035272;28;20489;-69
2023/05/30 05:09:27;;;;;;;6.37;2.00;;;16.60;99.90;;;;;;5037637;28;20418;-70
2023/05/30 05:11:54;;;;;;;6.83;2.13;;;17.60;98.40;;;;;;5032528;28;20796;-70
2023/05/30 05:14:19;;;;;;;3.10;1.63;;;17.70;98.00;;;;;;5027435;28;20249;-69
2023/05/30 05:16:45;;;;;;;3.40;1.90;;;18.10;96.60;;;;;;5031295;28;20421;-71
2023/05/30 05:19:10;;;;;;;5.40;2.07;;;18.40;96.20;;;;;;5030918;28;20209;-69
2023/05/30 05:21:36;;;;;;;3.50;1.70;;;19.10;95.70;;;;;;5031114;28;20194;-69
2023/05/30 05:24:03;;;;;;;2.30;1.60;;;19.80;94.60;;;;;;5030757;28;20175;-70
2023/05/30 05:26:29;;;;;;;3.93;2.50;;;19.90;93.30;;;;;;5031246;28;20184;-70
2023/05/30 05:28:56;;;;;;;4.47;2.17;;;20.10;93.60;;;;;;5029441;28;20469;-70
2023/05/30 05:31:22;;;;;;;3.47;1.90;;;20.30;93.00;;;;;;5031349;28;20755;-70
2023/05/30 05:33:48;;;;;;;4.27;1.97;;;20.10;93.30;;;;;;5028680;28;20437;-69
2023/05/30 05:36:14;;;;;;;4.30;2.00;;;20.30;92.10;;;;;;5031019;28;20417;-70
2023/05/30 05:38:39;;;;;;;5.23;2.10;;;19.50;92.90;;;;;;5030692;28;20191;-70
2023/05/30 05:41:05;;;;;;;2.57;1.80;;;19.30;94.10;;;;;;5030989;28;20195;-69
2023/05/30 05:43:31;;;;;;;6.70;2.17;;;20.00;92.60;;;;;;5030996;28;20218;-70
2023/05/30 05:45:56;;;;;;;8.10;2.37;;;19.80;92.20;;;;;;5030557;28;20543;-69
2023/05/30 05:48:22;;;;;;;7.43;2.00;;;19.90;92.60;;;;;;5030626;28;20192;-69
2023/05/30 05:50:48;;;;;;;4.53;2.23;;;20.40;91.60;;;;;;5028517;28;20764;-70
2023/05/30 05:53:14;;;;;;;3.80;1.83;;;20.90;90.10;;;;;;5011698;28;20170;-70
2023/05/30 05:55:39;;;;;;;3.57;1.77;;;21.00;89.90;;;;;;5011347;28;20222;-71
2023/05/30 05:58:05;;;;;;;3.87;2.03;;;21.20;86.50;;;;;;5011019;28;20184;-70
2023/05/30 06:00:31;;;;;;;2.33;1.90;;;21.20;88.60;;;;;;5010967;28;20164;-70
2023/05/30 06:02:59;;;;;;;5.40;2.70;;;21.40;87.00;;;;;;5010663;28;20211;-69
2023/05/30 06:05:24;;;;;;;7.20;2.37;;;21.60;86.30;;;;;;5010649;28;20789;-69
2023/05/30 06:07:50;;;;;;;5.73;3.20;;;21.80;85.90;;;;;;5010716;28;20603;-69
2023/05/30 06:10:16;;;;;;;5.53;1.90;;;21.80;83.90;;;;;;5025701;28;20233;-69
2023/05/30 06:12:41;;;;;;;3.70;2.00;;;22.00;82.40;;;;;;5030427;28;20615;-69
2023/05/30 06:15:07;;;;;;;3.43;2.10;;;21.70;81.60;;;;;;5030367;28;20195;-69
2023/05/30 06:17:34;;;;;;;2.93;1.90;;;22.60;79.90;;;;;;5030079;28;20231;-69
2023/05/30 06:19:59;;;;;;;4.30;2.20;;;21.70;79.80;;;;;;5030523;28;20434;-69
2023/05/30 06:22:25;;;;;;;3.53;1.73;;;21.70;81.70;;;;;;5030292;28;20545;-69
2023/05/30 06:24:50;;;;;;;8.63;2.30;;;22.10;82.40;;;;;;5028547;28;20164;-68
2023/05/30 06:27:16;;;;;;;3.73;2.20;;;22.90;80.40;;;;;;5030263;28;20175;-69
2023/05/30 06:29:42;;;;;;;4.70;2.17;;;23.60;76.00;;;;;;5028451;28;20182;-70
2023/05/30 06:32:08;;;;;;;2.70;1.60;;;23.60;77.90;;;;;;5030300;28;20175;-70
2023/05/30 06:34:34;;;;;;;4.50;2.03;;;23.20;76.60;;;;;;5030478;28;20198;-69
2023/05/30 06:37:00;;;;;;;4.07;2.10;;;22.90;78.00;;;;;;5029491;28;20409;-69
2023/05/30 06:39:25;;;;;;;2.90;1.80;;;23.70;75.30;;;;;;5030354;28;20712;-69
2023/05/30 06:41:51;;;;;;;3.77;2.30;;;23.00;76.40;;;;;;5030213;28;20665;-69
2023/05/30 06:44:17;;;;;;;2.93;1.90;;;22.40;77.30;;;;;;5028794;28;20564;-69
2023/05/30 06:46:43;;;;;;;4.63;2.17;;;23.60;76.90;;;;;;5029303;28;20513;-69
2023/05/30 06:49:09;;;;;;;4.23;2.10;;;22.90;75.90;;;;;;5030436;28;20184;-70
2023/05/30 06:51:35;;;;;;;4.83;1.90;;;23.30;76.80;;;;;;5028962;28;20167;-69
2023/05/30 06:54:01;;;;;;;6.90;1.63;;;23.30;78.30;;;;;;5029943;28;20186;-70
2023/05/30 06:56:26;;;;;;;4.40;1.90;;;23.70;79.30;;;;;;5029898;28;20406;-70
2023/05/30 06:58:52;;;;;;;4.10;1.87;;;24.10;74.30;;;;;;5029672;28;20223;-70
2023/05/30 07:01:18;;;;;;;6.87;2.10;;;24.60;73.30;;;;;;5023650;28;20252;-70
2023/05/30 07:03:43;;;;;;;5.67;2.00;;;24.20;73.80;;;;;;5010141;28;20203;-70
2023/05/30 07:06:09;;;;;;;3.57;1.60;;;24.90;74.40;;;;;;5009990;28;20236;-70
2023/05/30 07:08:35;;;;;;;4.93;1.73;;;24.30;72.40;;;;;;5009997;28;20184;-69
2023/05/30 07:11:00;;;;;;;4.50;2.20;;;25.10;74.00;;;;;;5010102;28;20160;-70
2023/05/30 07:13:26;;;;;;;6.03;2.37;;;25.90;72.30;;;;;;5010199;28;20176;-70
2023/05/30 07:15:51;;;;;;;2.20;1.43;;;26.30;69.20;;;;;;5010479;28;20183;-70
2023/05/30 07:18:17;;;;;;;3.67;2.50;;;25.60;70.30;;;;;;5029576;28;20678;-69
2023/05/30 07:20:43;;;;;;;4.40;1.40;;;25.70;68.50;;;;;;5029641;28;20181;-70
2023/05/30 07:23:08;;;;;;;2.30;1.40;;;25.40;67.80;;;;;;5029601;28;20195;-70
2023/05/30 07:25:34;;;;;;;4.70;2.10;;;24.40;69.30;;;;;;5029751;28;20182;-69
2023/05/30 07:27:59;;;;;;;3.63;1.77;;;24.40;69.30;;;;;;5029410;28;20199;-69
2023/05/30 07:30:25;;;;;;;2.90;1.83;;;24.00;71.90;;;;;;5029507;28;20171;-70
2023/05/30 07:32:51;;;;;;;3.37;1.60;;;24.50;71.40;;;;;;5027857;28;20210;-69
2023/05/30 07:35:16;;;;;;;4.37;1.60;;;24.70;70.60;;;;;;5029229;28;20256;-70
2023/05/30 07:37:42;;;;;;;2.53;1.50;;;25.90;67.10;;;;;;5054221;23;20619;-67
2023/05/30 07:40:08;;;;;;;4.30;1.70;;;25.70;65.70;;;;;;5043819;28;20203;-67
2023/05/30 07:42:36;;;;;;;3.10;1.57;;;25.80;65.00;;;;;;5049804;28;20194;-66
2023/05/30 07:45:02;;;;;;;3.27;1.67;;;26.30;61.80;;;;;;5049450;28;20167;-67
2023/05/30 07:47:28;;;;;;;2.93;1.87;;;25.80;64.40;;;;;;5050911;28;20491;-70
2023/05/30 07:49:54;;;;;;;2.80;1.70;;;25.00;65.70;;;;;;5053377;28;20518;-67
2023/05/30 07:52:19;;;;;;;3.43;1.67;;;24.70;65.90;;;;;;5054574;28;20186;-68
2023/05/30 07:54:45;;;;;;;2.33;1.90;;;24.20;68.30;;;;;;5054470;28;20174;-67
2023/05/30 07:57:13;;;;;;;3.57;1.93;;;25.60;64.70;;;;;;5053217;28;20637;-68
2023/05/30 07:59:41;;;;;;;2.80;1.63;;;26.30;62.30;;;;;;5054082;28;20187;-69
2023/05/30 08:02:06;;;;;;;2.47;1.90;;;25.90;64.50;;;;;;5054264;28;20803;-68
2023/05/30 08:04:32;;;;;;;5.60;2.13;;;25.50;62.40;;;;;;5054195;28;20530;-67
2023/05/30 08:06:58;;;;;;;2.27;1.77;;;26.50;59.40;;;;;;5052893;28;20270;-67
2023/05/30 08:09:23;;;;;;;3.77;1.70;;;25.80;61.40;;;;;;5054215;28;20194;-67
2023/05/30 08:11:49;;;;;;;3.30;2.00;;;26.20;59.80;;;;;;5052895;28;20726;-67
2023/05/30 08:14:15;;;;;;;2.27;1.60;;;24.50;63.30;;;;;;5052455;28;20185;-70
2023/05/30 08:16:40;;;;;;;5.93;2.10;;;26.00;60.80;;;;;;5052682;28;20543;-67
2023/05/30 08:19:06;;;;;;;5.77;1.60;;;25.70;62.80;;;;;;5053948;28;20267;-66
2023/05/30 08:21:32;;;;;;;3.67;1.57;;;25.10;59.60;;;;;;5053895;28;20198;-67
2023/05/30 08:23:58;;;;;;;2.43;1.70;;;24.80;60.70;;;;;;5031222;28;20186;-66
2023/05/30 08:26:30;;;;;;;2.73;1.70;;;24.80;59.80;;;;;;5033846;28;20250;-68
2023/05/30 08:28:56;;;;;;;3.20;2.00;;;25.70;59.40;;;;;;5033570;28;20195;-67
2023/05/30 08:31:21;;;;;;;3.90;1.97;;;25.50;61.80;;;;;;5033693;28;20406;-68
2023/05/30 08:33:47;;;;;;;4.47;1.70;;;24.70;63.30;;;;;;5032861;28;20464;-69
2023/05/30 08:36:13;;;;;;;4.00;1.70;;;26.20;60.40;;;;;;5033921;28;20181;-68
2023/05/30 08:38:38;;;;;;;4.13;2.17;;;26.70;57.70;;;;;;5044356;28;20214;-68
2023/05/30 08:41:04;;;;;;;3.37;1.87;;;26.80;56.70;;;;;;5052558;28;20248;-68
2023/05/30 08:43:30;;;;;;;2.40;1.53;;;27.50;56.80;;;;;;5052131;28;20175;-69
2023/05/30 08:45:57;;;;;;;3.10;1.70;;;27.30;56.80;;;;;;5053269;28;20167;-69
2023/05/30 08:48:25;;;;;;;4.90;2.20;;;27.00;56.50;;;;;;5052552;28;20225;-68
2023/05/30 08:50:52;;;;;;;4.20;2.00;;;26.30;57.50;;;;;;5052016;28;20409;-67
2023/05/30 08:53:25;;;;;;;2.57;1.70;;;26.10;55.60;;;;;;5048136;28;20434;-67
2023/05/30 08:56:01;;;;;;;2.60;1.70;;;25.00;54.80;;;;;;5033157;28;20425;-67
2023/05/30 08:58:33;;;;;;;3.00;1.50;;;25.60;55.90;;;;;;5015470;28;20525;-67
2023/05/30 09:00:59;;;;;;;4.17;1.83;;;25.70;56.60;;;;;;5033213;28;20450;-67
2023/05/30 09:03:28;;;;;;;2.83;1.87;;;25.80;54.80;;;;;;5033220;28;20845;-66
2023/05/30 09:05:55;;;;;;;4.93;1.80;;;24.80;55.00;;;;;;5031785;28;20695;-68
2023/05/30 09:08:25;;;;;;;3.60;1.57;;;24.40;56.20;;;;;;5034926;28;20460;-68
2023/05/30 09:10:51;;;;;;;7.97;2.50;;;25.40;55.40;;;;;;5045669;28;20433;-67
2023/05/30 09:13:17;;;;;;;2.60;2.03;;;25.80;54.90;;;;;;5040666;28;20433;-66
2023/05/30 09:15:44;;;;;;;2.33;1.60;;;25.70;54.70;;;;;;5050956;28;20512;-67
2023/05/30 09:18:10;;;;;;;3.20;1.53;;;25.70;55.10;;;;;;5036650;28;20692;-67
2023/05/30 09:20:37;;;;;;;4.80;2.17;;;24.90;56.50;;;;;;5032826;28;20489;-67
2023/05/30 09:23:03;;;;;;;3.33;1.73;;;25.00;55.60;;;;;;5047681;28;20462;-66
2023/05/30 09:25:43;;;;;;;3.20;1.73;;;25.10;55.20;;;;;;5031046;28;20417;-67
2023/05/30 09:28:09;;;;;;;5.93;1.90;;;24.40;56.00;;;;;;5032354;28;20441;-68
2023/05/30 09:30:51;;;;;;;2.43;1.90;;;23.80;57.50;;;;;;5048415;28;20429;-67
2023/05/30 09:33:17;;;;;;;5.10;2.30;;;24.00;59.00;;;;;;5050293;28;20911;-69
2023/05/30 09:35:46;;;;;;;3.73;2.37;;;24.30;58.40;;;;;;5044313;28;20430;-67
2023/05/30 09:38:15;;;;;;;3.40;2.10;;;24.80;57.10;;;;;;5045311;28;20707;-66
2023/05/30 09:40:41;;;;;;;2.70;1.80;;;25.50;57.30;;;;;;5050365;28;20439;-68
2023/05/30 09:43:07;;;;;;;4.73;1.80;;;24.50;57.40;;;;;;5032373;28;20845;-67
2023/05/30 09:45:32;;;;;;;4.10;2.10;;;25.00;58.10;;;;;;5032195;28;20182;-67
2023/05/30 09:47:58;;;;;;;3.80;2.10;;;25.80;56.40;;;;;;5034971;28;20234;-67
2023/05/30 09:50:24;;;;;;;4.23;1.80;;;26.10;54.60;;;;;;5043492;28;20237;-66
2023/05/30 09:52:56;;;;;;;3.27;2.27;;;25.50;55.60;;;;;;5044563;28;20213;-66
2023/05/30 09:55:24;;;;;;;3.20;2.20;;;25.50;54.20;;;;;;5039331;28;20438;-68
2023/05/30 09:57:51;;;;;;;2.73;1.70;;;24.90;54.70;;;;;;5030390;28;20441;-66
2023/05/30 10:00:23;;;;;;;5.00;1.80;;;24.30;55.80;;;;;;5031765;28;20441;-67
2023/05/30 10:02:56;;;;;;;6.97;2.13;;;24.00;56.40;;;;;;5032067;28;20457;-68
2023/05/30 10:05:24;;;;;;;3.33;1.83;;;23.60;58.00;;;;;;5032053;28;20398;-66
2023/05/30 10:07:52;;;;;;;5.40;2.13;;;23.20;59.60;;;;;;5049212;28;20950;-67
2023/05/30 10:10:18;;;;;;;4.67;1.87;;;22.50;57.90;;;;;;5039990;28;20954;-67
2023/05/30 10:12:48;;;;;;;3.60;2.30;;;22.70;57.60;;;;;;5031330;28;20414;-68
2023/05/30 10:15:14;;;;;;;4.20;1.70;;;22.60;57.30;;;;;;5031680;28;20859;-68
2023/05/30 10:17:46;;;;;;;5.07;2.47;;;22.10;57.20;;;;;;5030332;28;20566;-68
2023/05/30 10:20:13;;;;;;;4.40;3.13;;;22.50;56.30;;;;;;5047257;28;20255;-67
2023/05/30 10:22:42;;;;;;;5.43;1.80;;;22.10;57.80;;;;;;5031057;28;20491;-68
2023/05/30 10:25:09;;;;;;;3.47;2.00;;;21.60;57.30;;;;;;5049923;28;20414;-69
2023/05/30 10:27:57;;;;;;;3.83;1.70;;;21.30;58.20;;;;;;5046403;28;20439;-70
2023/05/30 10:30:30;;;;;;;5.03;1.90;;;21.10;58.20;;;;;;5042309;28;20474;-69
2023/05/30 10:33:17;;;;;;;3.23;1.90;;;21.40;58.80;;;;;;5031665;28;20415;-67
2023/05/30 10:35:42;;;;;;;4.77;2.33;;;21.50;59.40;;;;;;5030146;28;20424;-68
2023/05/30 10:38:11;;;;;;;3.80;2.03;;;21.50;59.20;;;;;;5031632;28;20454;-67
2023/05/30 10:41:24;;;;;;;4.90;1.73;;;21.70;57.90;;;;;;5040968;28;20194;-68
2023/05/30 10:44:11;;;;;;;2.97;1.93;;;21.60;56.90;;;;;;5033598;28;20429;-69
2023/05/30 10:46:45;;;;;;;2.60;1.60;;;21.20;56.90;;;;;;5048859;28;20437;-67
2023/05/30 10:49:18;;;;;;;4.77;2.00;;;21.20;57.50;;;;;;5049523;28;20436;-68
2023/05/30 10:52:03;;;;;;;6.00;1.83;;;21.20;57.40;;;;;;5049898;28;20411;-67
2023/05/30 10:54:34;;;;;;;2.83;1.80;;;21.20;57.30;;;;;;5051044;28;20826;-67
2023/05/30 10:57:32;;;;;;;3.10;2.00;;;21.40;57.00;;;;;;5050133;28;20434;-68
2023/05/30 11:00:23;;;;;;;2.30;1.77;;;21.70;56.90;;;;;;5039800;28;20431;-68
2023/05/30 11:02:57;;;;;;;4.20;2.10;;;21.30;56.40;;;;;;5049962;28;20462;-67
2023/05/30 11:05:32;;;;;;;3.30;1.53;;;21.20;56.40;;;;;;5049292;28;20506;-67
2023/05/30 11:08:00;;;;;;;2.90;2.20;;;21.20;57.00;;;;;;5051407;28;20432;-68
2023/05/30 11:10:28;;;;;;;5.13;1.70;;;21.30;56.90;;;;;;5051449;28;20420;-67
2023/05/30 11:13:10;;;;;;;3.47;2.27;;;21.40;58.40;;;;;;5044881;28;20543;-71
2023/05/30 11:15:42;;;;;;;3.00;2.70;;;21.50;58.80;;;;;;5027492;28;20518;-70
2023/05/30 11:18:18;;;;;;;5.70;2.10;;;21.30;58.50;;;;;;5031715;28;20930;-67
2023/05/30 11:20:54;;;;;;;2.40;1.73;;;21.20;58.70;;;;;;5031242;28;20423;-67
2023/05/30 11:23:21;;;;;;;4.90;2.10;;;21.20;58.20;;;;;;5033046;28;20419;-68
2023/05/30 11:25:47;;;;;;;3.60;2.30;;;21.00;57.80;;;;;;5035220;28;20827;-67
2023/05/30 11:28:15;;;;;;;3.67;1.83;;;21.10;58.50;;;;;;5049359;28;20482;-67
2023/05/30 11:30:48;;;;;;;5.57;2.10;;;21.30;59.30;;;;;;5054721;28;20170;-68
2023/05/30 11:33:17;;;;;;;4.40;1.97;;;21.50;59.20;;;;;;5041801;28;20857;-68
2023/05/30 11:35:48;;;;;;;4.43;4.03;;;21.50;59.40;;;;;;5033881;28;20407;-69
2023/05/30 11:38:24;;;;;;;7.33;2.20;;;21.50;59.60;;;;;;5050110;28;20597;-69
2023/05/30 11:40:50;;;;;;;5.93;2.20;;;21.80;59.20;;;;;;5034837;28;20431;-67
2023/05/30 11:43:17;;;;;;;3.70;1.70;;;21.80;58.70;;;;;;5034834;28;20753;-67
2023/05/30 11:45:46;;;;;;;5.13;2.00;;;21.30;59.00;;;;;;5047571;28;20436;-69
2023/05/30 11:48:12;;;;;;;4.17;2.13;;;21.20;59.60;;;;;;5047444;28;20493;-68
2023/05/30 11:50:38;;;;;;;2.90;2.03;;;21.20;59.40;;;;;;5053311;28;20415;-67
2023/05/30 11:53:16;;;;;;;5.20;1.73;;;21.10;59.60;;;;;;5036285;28;20476;-68
2023/05/30 11:55:48;;;;;;;3.30;1.87;;;21.10;59.60;;;;;;5034379;28;20430;-67
2023/05/30 11:58:17;;;;;;;2.53;1.90;;;21.10;59.80;;;;;;5034447;28;20469;-68
2023/05/30 12:00:44;;;;;;;4.10;1.80;;;21.30;59.30;;;;;;5034344;28;20464;-68
2023/05/30 12:03:16;;;;;;;3.53;1.63;;;21.30;59.70;;;;;;5034159;28;20473;-67
2023/05/30 12:05:42;;;;;;;4.97;1.77;;;21.30;59.80;;;;;;5053759;28;20503;-68
2023/05/30 12:08:07;;;;;;;3.50;1.87;;;21.30;59.90;;;;;;5054473;28;20427;-67
2023/05/30 12:10:33;;;;;;;3.73;2.00;;;21.20;60.00;;;;;;5049695;28;20432;-69
2023/05/30 12:13:02;;;;;;;2.70;1.83;;;21.30;60.50;;;;;;5040341;28;20175;-67
2023/05/30 12:15:27;;;;;;;3.67;1.73;;;21.50;60.00;;;;;;5032398;28;20172;-67
2023/05/30 12:17:53;;;;;;;5.63;3.53;;;21.60;61.00;;;;;;5032415;28;20429;-69
2023/05/30 12:20:20;;;;;;;4.90;2.60;;;21.80;59.10;;;;;;5051666;28;20178;-70
2023/05/30 12:22:47;;;;;;;2.40;1.60;;;21.90;59.80;;;;;;5044118;28;20462;-69
2023/05/30 12:25:13;;;;;;;3.30;1.80;;;21.70;60.20;;;;;;5053934;28;20920;-69
2023/05/30 12:27:43;;;;;;;2.97;1.90;;;21.80;61.20;;;;;;5054011;28;20790;-69
2023/05/30 12:30:14;;;;;;;3.70;1.60;;;21.90;61.10;;;;;;5053832;28;20410;-71
2023/05/30 12:32:40;;;;;;;6.13;1.67;;;21.90;60.40;;;;;;5035038;28;20429;-70
2023/05/30 12:35:08;;;;;;;4.60;2.03;;;22.00;60.50;;;;;;5032991;28;20413;-69
2023/05/30 12:37:34;;;;;;;5.90;1.90;;;22.10;61.30;;;;;;5044728;28;20205;-68
2023/05/30 12:40:01;;;;;;;2.77;1.60;;;22.20;61.60;;;;;;5044482;28;20425;-69
2023/05/30 12:42:32;;;;;;;3.00;1.63;;;22.30;61.30;;;;;;5048564;28;20456;-69
2023/05/30 12:45:00;;;;;;;2.83;1.87;;;22.20;61.90;;;;;;5048107;28;20840;-69
2023/05/30 12:47:27;;;;;;;3.80;1.50;;;22.10;62.20;;;;;;5052115;28;20405;-70
2023/05/30 12:49:54;;;;;;;3.20;1.60;;;22.00;61.50;;;;;;5045142;28;20436;-69
2023/05/30 12:52:22;;;;;;;5.90;2.53;;;21.70;63.40;;;;;;5031778;28;20432;-69